Time;durP1;ratioP1;P1;durP2;ratioP2;P2;SDS_P1;SDS_P2;PMS_P1;PMS_P2;Temp;Humidity;BMP_temperature;BMP_pressure;BME280_temperature;BME280_humidity;BME280_pressure;Samples;Min_cycle;Max_cycle;Signal;HPM_P1;HPM_P2
2022/01/25 00:25:57;;;;;;;;;;;;;;;;;;5135140;27;19923;-76
2022/01/25 00:31:02;;;;;;;;;;;;;;;;;;5135663;27;19945;-75
2022/01/25 00:33:28;;;;;;;;;;;;;;;;;;5135501;27;19922;-75
2022/01/25 00:35:53;;;;;;;;;;;;;;;;;;5134473;27;19998;-76
2022/01/25 00:38:19;;;;;;;;;;;;;;;;;;5135148;27;20014;-76
2022/01/25 00:40:44;;;;;;;;;;;;;;;;;;5134939;27;20336;-75
2022/01/25 00:43:09;;;;;;;;;;;;;;;;;;5135085;27;19921;-76
2022/01/25 00:45:35;;;;;;;;;;;;;;;;;;5134859;27;20006;-76
2022/01/25 00:48:03;;;;;;;;;;;;;;;;;;5135018;27;19919;-76
2022/01/25 00:50:36;;;;;;;;;;;;;;;;;;5116179;27;19923;-75
2022/01/25 00:55:27;;;;;;;;;;;;;;;;;;5134827;27;19967;-75
2022/01/25 00:57:52;;;;;;;;;;;;;;;;;;5116282;27;19915;-75
2022/01/25 01:00:17;;;;;;;;;;;;;;;;;;5134327;27;19915;-76
2022/01/25 01:02:43;;;;;;;;;;;;;;;;;;5134982;27;19915;-76
2022/01/25 01:05:08;;;;;;;;;;;;;;;;;;5115898;27;19924;-76
2022/01/25 01:07:34;;;;;;;;;;;;;;;;;;5134612;27;19915;-76
2022/01/25 01:10:00;;;;;;;;;;;;;;;;;;5134573;27;19939;-75
2022/01/25 01:31:48;;;;;;;;;;;;;;;;;;5124316;28;19923;-76
2022/01/25 01:42:14;;;;;;;;;;;;;;;;;;5117881;28;19915;-75
2022/01/25 01:47:49;;;;;;;;;;;;;;;;;;5054792;28;20414;-76
2022/01/25 01:50:27;;;;;;;;;;;;;;;;;;5090409;28;19919;-76
2022/01/25 01:52:52;;;;;;;;;;;;;;;;;;5117335;28;19915;-76
2022/01/25 01:55:17;;;;;;;;;;;;;;;;;;5117833;28;19945;-76
2022/01/25 01:57:43;;;;;;;;;;;;;;;;;;5117846;28;19915;-76
2022/01/25 02:00:08;;;;;;;;;;;;;;;;;;5117733;28;20303;-76
2022/01/25 03:13:26;;;;;;;;;;;;;;;;;;3829885;27;19945;-75
2022/01/25 03:18:37;;;;;;;;;;;;;;;;;;5136798;27;19915;-75
2022/01/25 03:21:17;;;;;;;;;;;;;;;;;;5118223;27;19915;-75
2022/01/25 03:23:43;;;;;;;;;;;;;;;;;;5117979;27;19959;-75
2022/01/25 03:26:09;;;;;;;;;;;;;;;;;;5136165;27;19973;-75
2022/01/25 03:28:34;;;;;;;;;;;;;;;;;;5136678;27;19923;-75
2022/01/25 03:30:59;;;;;;;;;;;;;;;;;;5135743;27;20399;-75
2022/01/25 03:33:25;;;;;;;;;;;;;;;;;;5136359;27;19915;-75
2022/01/25 03:35:50;;;;;;;;;;;;;;;;;;5136219;27;19998;-75
2022/01/25 03:38:15;;;;;;;;;;;;;;;;;;5136939;27;19995;-77
2022/01/25 03:40:41;;;;;;;;;;;;;;;;;;5136903;27;19922;-75
2022/01/25 03:43:08;;;;;;;;;;;;;;;;;;5136278;27;19916;-75
2022/01/25 03:45:36;;;;;;;;;;;;;;;;;;5136696;27;19934;-75
2022/01/25 03:50:39;;;;;;;;;;;;;;;;;;5139640;27;20061;-77
2022/01/25 03:53:05;;;;;;;;;;;;;;;;;;5140001;27;19916;-76
2022/01/25 03:55:31;;;;;;;;;;;;;;;;;;5137129;27;19915;-75
2022/01/25 03:57:56;;;;;;;;;;;;;;;;;;5119431;27;19964;-78
2022/01/25 04:00:21;;;;;;;;;;;;;;;;;;5136988;27;19915;-78
2022/01/25 04:02:55;;;;;;;;;;;;;;;;;;5140239;27;19972;-79
2022/01/25 04:05:32;;;;;;;;;;;;;;;;;;5150061;27;19920;-78
2022/01/25 04:07:57;;;;;;;;;;;;;;;;;;5132048;27;19959;-78
2022/01/25 04:10:23;;;;;;;;;;;;;;;;;;5130927;27;19916;-78
2022/01/25 04:12:48;;;;;;;;;;;;;;;;;;5149904;27;19916;-78
2022/01/25 04:15:13;;;;;;;;;;;;;;;;;;5148646;27;19919;-78
2022/01/25 04:17:42;;;;;;;;;;;;;;;;;;5148021;27;20396;-78
2022/01/25 04:20:19;;;;;;;;;;;;;;;;;;5146140;27;19975;-78
2022/01/25 04:25:28;;;;;;;;;;;;;;;;;;5147223;27;20189;-78
2022/01/25 04:27:54;;;;;;;;;;;;;;;;;;5147056;27;19923;-78
2022/01/25 04:30:19;;;;;;;;;;;;;;;;;;5146615;27;19915;-78
2022/01/25 04:33:16;;;;;;;;;;;;;;;;;;5147615;27;20002;-78
2022/01/25 04:54:44;;;;;;;;;;;;;;;;;;5146620;27;19950;-78
2022/01/25 04:59:52;;;;;;;;;;;;;;;;;;5148064;27;19919;-79
2022/01/25 05:02:34;;;;;;;;;;;;;;;;;;5146700;27;20376;-78
2022/01/25 05:05:15;;;;;;;;;;;;;;;;;;5107041;28;19919;-78
2022/01/25 05:07:49;;;;;;;;;;;;;;;;;;5125785;28;19923;-78
2022/01/25 05:10:15;;;;;;;;;;;;;;;;;;5108107;28;20388;-78
2022/01/25 05:12:53;;;;;;;;;;;;;;;;;;5126336;28;19927;-78
2022/01/25 05:15:38;;;;;;;;;;;;;;;;;;5126296;28;19920;-78
2022/01/25 05:23:21;;;;;;;;;;;;;;;;;;5125701;28;19922;-78
2022/01/25 05:25:47;;;;;;;;;;;;;;;;;;5125912;28;20008;-78
2022/01/25 05:28:12;;;;;;;;;;;;;;;;;;5126278;28;19916;-78
2022/01/25 05:30:37;;;;;;;;;;;;;;;;;;5132301;28;19916;-78
2022/01/25 05:33:02;;;;;;;;;;;;;;;;;;5146348;28;19919;-78
2022/01/25 05:35:28;;;;;;;;;;;;;;;;;;5146904;28;20082;-78
2022/01/25 05:37:53;;;;;;;;;;;;;;;;;;5145856;27;19922;-78
2022/01/25 05:40:28;;;;;;;;;;;;;;;;;;5126727;28;19926;-79
2022/01/25 05:45:50;;;;;;;;;;;;;;;;;;5143961;28;19919;-78
2022/01/25 05:48:16;;;;;;;;;;;;;;;;;;5125532;28;19973;-78
2022/01/25 05:50:41;;;;;;;;;;;;;;;;;;5141354;28;19919;-79
2022/01/25 05:53:06;;;;;;;;;;;;;;;;;;5144111;28;20336;-79
2022/01/25 05:55:32;;;;;;;;;;;;;;;;;;5143446;28;20270;-78
2022/01/25 05:57:57;;;;;;;;;;;;;;;;;;5144584;27;19919;-79
2022/01/25 06:00:22;;;;;;;;;;;;;;;;;;5144166;28;19915;-78
2022/01/25 06:02:54;;;;;;;;;;;;;;;;;;5144686;28;19978;-79
2022/01/25 06:05:19;;;;;;;;;;;;;;;;;;5146948;28;20005;-78
2022/01/25 06:07:44;;;;;;;;;;;;;;;;;;5128685;27;19915;-79
2022/01/25 06:10:10;;;;;;;;;;;;;;;;;;5146453;28;19915;-79
2022/01/25 06:12:35;;;;;;;;;;;;;;;;;;5146817;28;20538;-78
2022/01/25 06:15:01;;;;;;;;;;;;;;;;;;5146111;28;19964;-78
2022/01/25 06:17:26;;;;;;;;;;;;;;;;;;5146965;27;19919;-78
2022/01/25 06:19:51;;;;;;;;;;;;;;;;;;5152314;27;19915;-79
2022/01/25 06:22:17;;;;;;;;;;;;;;;;;;5152461;27;20387;-78
2022/01/25 06:24:42;;;;;;;;;;;;;;;;;;5151871;27;19923;-78
2022/01/25 06:27:08;;;;;;;;;;;;;;;;;;5151291;27;19919;-79
2022/01/25 06:29:33;;;;;;;;;;;;;;;;;;5147669;27;19919;-80
2022/01/25 06:31:59;;;;;;;;;;;;;;;;;;5102344;27;20693;-77
2022/01/25 06:34:25;;;;;;;;;;;;;;;;;;5138210;27;19920;-76
2022/01/25 06:36:50;;;;;;;;;;;;;;;;;;5137960;27;19919;-77
2022/01/25 06:39:15;;;;;;;;;;;;;;;;;;5137801;27;20112;-77
2022/01/25 06:41:41;;;;;;;;;;;;;;;;;;5137761;27;19927;-77
2022/01/25 06:44:06;;;;;;;;;;;;;;;;;;5137415;27;20272;-77
2022/01/25 06:46:32;;;;;;;;;;;;;;;;;;5137574;27;19919;-77
2022/01/25 06:48:57;;;;;;;;;;;;;;;;;;5137486;27;20014;-76
2022/01/25 06:51:22;;;;;;;;;;;;;;;;;;5119538;27;19912;-76
2022/01/25 06:53:47;;;;;;;;;;;;;;;;;;5137930;27;20310;-77
2022/01/25 06:56:13;;;;;;;;;;;;;;;;;;5119136;27;19919;-76
2022/01/25 06:58:41;;;;;;;;;;;;;;;;;;5137389;27;19919;-77
2022/01/25 07:01:07;;;;;;;;;;;;;;;;;;5137347;27;20323;-77
2022/01/25 07:03:32;;;;;;;;;;;;;;;;;;5117972;27;19919;-76
2022/01/25 07:05:57;;;;;;;;;;;;;;;;;;5137150;27;19942;-76
2022/01/25 07:08:22;;;;;;;;;;;;;;;;;;5136934;27;19915;-76
2022/01/25 07:10:48;;;;;;;;;;;;;;;;;;5136934;27;19925;-78
2022/01/25 07:13:13;;;;;;;;;;;;;;;;;;5142375;27;19919;-78
2022/01/25 07:15:39;;;;;;;;;;;;;;;;;;5126443;27;19929;-78
2022/01/25 07:18:04;;;;;;;;;;;;;;;;;;5140334;27;20289;-76
2022/01/25 07:20:29;;;;;;;;;;;;;;;;;;5136668;27;20373;-77
2022/01/25 07:22:55;;;;;;;;;;;;;;;;;;5136843;27;19968;-77
2022/01/25 07:25:21;;;;;;;;;;;;;;;;;;5136468;27;19920;-76
2022/01/25 07:27:47;;;;;;;;;;;;;;;;;;5136681;27;19916;-77
2022/01/25 07:30:12;;;;;;;;;;;;;;;;;;5137154;27;20273;-78
2022/01/25 07:32:37;;;;;;;;;;;;;;;;;;5117300;27;20006;-78
2022/01/25 07:35:04;;;;;;;;;;;;;;;;;;5136633;27;19916;-78
2022/01/25 07:37:29;;;;;;;;;;;;;;;;;;5118019;27;19919;-78
2022/01/25 07:39:56;;;;;;;;;;;;;;;;;;5136548;27;19915;-78
2022/01/25 07:42:21;;;;;;;;;;;;;;;;;;5136148;27;19937;-78
2022/01/25 07:44:52;;;;;;;;;;;;;;;;;;5101646;27;19926;-76
2022/01/25 07:47:17;;;;;;;;;;;;;;;;;;5136488;27;19915;-77
2022/01/25 07:49:43;;;;;;;;;;;;;;;;;;5136399;27;20380;-78
2022/01/25 07:52:08;;;;;;;;;;;;;;;;;;5117583;27;20400;-78
2022/01/25 07:54:33;;;;;;;;;;;;;;;;;;5117721;27;19962;-77
2022/01/25 07:56:58;;;;;;;;;;;;;;;;;;5117527;27;19919;-78
2022/01/25 07:59:27;;;;;;;;;;;;;;;;;;5136040;27;19922;-78
2022/01/25 08:01:52;;;;;;;;;;;;;;;;;;5117764;27;19976;-78
2022/01/25 08:04:18;;;;;;;;;;;;;;;;;;5136011;27;20431;-78
2022/01/25 08:06:43;;;;;;;;;;;;;;;;;;5135048;27;19927;-78
2022/01/25 08:09:09;;;;;;;;;;;;;;;;;;5147265;27;19923;-79
2022/01/25 08:11:35;;;;;;;;;;;;;;;;;;5147226;27;19920;-77
2022/01/25 08:14:12;;;;;;;;;;;;;;;;;;5144805;27;19919;-82
2022/01/25 08:16:38;;;;;;;;;;;;;;;;;;5121883;27;19915;-76
2022/01/25 08:19:03;;;;;;;;;;;;;;;;;;5139355;27;19915;-78
2022/01/25 08:21:29;;;;;;;;;;;;;;;;;;5140208;27;19919;-79
2022/01/25 08:23:54;;;;;;;;;;;;;;;;;;5138507;27;19911;-77
2022/01/25 08:26:19;;;;;;;;;;;;;;;;;;5135827;27;19942;-78
2022/01/25 08:28:45;;;;;;;;;;;;;;;;;;5140409;27;19915;-84
2022/01/25 08:31:10;;;;;;;;;;;;;;;;;;5139444;27;19915;-78
2022/01/25 08:33:35;;;;;;;;;;;;;;;;;;5143291;27;19915;-80
2022/01/25 08:36:01;;;;;;;;;;;;;;;;;;5146343;27;19915;-80
2022/01/25 08:38:26;;;;;;;;;;;;;;;;;;5148563;27;19965;-79
2022/01/25 08:40:51;;;;;;;;;;;;;;;;;;5145504;27;19920;-78
2022/01/25 08:43:17;;;;;;;;;;;;;;;;;;5138758;27;20026;-77
2022/01/25 08:45:42;;;;;;;;;;;;;;;;;;5122653;27;19919;-85
2022/01/25 08:48:07;;;;;;;;;;;;;;;;;;5124278;27;19915;-81
2022/01/25 08:50:33;;;;;;;;;;;;;;;;;;5141197;27;20442;-80
2022/01/25 08:52:58;;;;;;;;;;;;;;;;;;5123074;27;19936;-85
2022/01/25 08:55:23;;;;;;;;;;;;;;;;;;5144720;27;20265;-87
2022/01/25 08:57:48;;;;;;;;;;;;;;;;;;5125266;27;19920;-86
2022/01/25 09:00:14;;;;;;;;;;;;;;;;;;5143185;27;20017;-83
2022/01/25 09:02:42;;;;;;;;;;;;;;;;;;5141569;27;19919;-83
2022/01/25 09:05:08;;;;;;;;;;;;;;;;;;5120858;28;19915;-84
2022/01/25 09:07:33;;;;;;;;;;;;;;;;;;5139527;27;19938;-84
2022/01/25 09:09:59;;;;;;;;;;;;;;;;;;5121224;28;19923;-83
2022/01/25 09:12:24;;;;;;;;;;;;;;;;;;5139901;27;19922;-83
2022/01/25 09:14:49;;;;;;;;;;;;;;;;;;5142561;28;19926;-82
2022/01/25 09:17:14;;;;;;;;;;;;;;;;;;5145848;28;19916;-80
2022/01/25 09:19:41;;;;;;;;;;;;;;;;;;5145263;27;19923;-80
2022/01/25 09:22:06;;;;;;;;;;;;;;;;;;5148284;28;19972;-80
2022/01/25 09:24:32;;;;;;;;;;;;;;;;;;5147687;28;19915;-79
2022/01/25 09:26:57;;;;;;;;;;;;;;;;;;5149822;28;19916;-79
2022/01/25 09:29:22;;;;;;;;;;;;;;;;;;5149903;27;19922;-82
2022/01/25 09:31:48;;;;;;;;;;;;;;;;;;5149728;28;19982;-82
2022/01/25 09:34:15;;;;;;;;;;;;;;;;;;5149825;28;20403;-82
2022/01/25 09:36:40;;;;;;;;;;;;;;;;;;5148467;28;19916;-82
2022/01/25 09:39:06;;;;;;;;;;;;;;;;;;5127863;28;19915;-79
2022/01/25 09:41:31;;;;;;;;;;;;;;;;;;5145648;28;19923;-79
2022/01/25 09:43:56;;;;;;;;;;;;;;;;;;5148121;28;19943;-79
2022/01/25 09:46:22;;;;;;;;;;;;;;;;;;5112204;28;19982;-79
2022/01/25 09:48:47;;;;;;;;;;;;;;;;;;5127981;28;19934;-79
2022/01/25 09:51:13;;;;;;;;;;;;;;;;;;5127311;28;19962;-81
2022/01/25 09:53:39;;;;;;;;;;;;;;;;;;5150055;27;19929;-82
2022/01/25 09:56:05;;;;;;;;;;;;;;;;;;5135927;27;19964;-83
2022/01/25 09:58:31;;;;;;;;;;;;;;;;;;5154746;27;19915;-83
2022/01/25 10:00:59;;;;;;;;;;;;;;;;;;5154540;27;19915;-83
2022/01/25 10:03:32;;;;;;;;;;;;;;;;;;5122459;28;20010;-83
2022/01/25 10:06:00;;;;;;;;;;;;;;;;;;5116016;28;19919;-83
2022/01/25 10:08:29;;;;;;;;;;;;;;;;;;5135826;28;19915;-83
2022/01/25 10:10:56;;;;;;;;;;;;;;;;;;5142570;27;19916;-83
2022/01/25 10:13:28;;;;;;;;;;;;;;;;;;5135868;27;19944;-83
2022/01/25 10:15:54;;;;;;;;;;;;;;;;;;5136555;27;19915;-83
2022/01/25 10:18:19;;;;;;;;;;;;;;;;;;5154620;27;19919;-83
2022/01/25 10:20:46;;;;;;;;;;;;;;;;;;5153848;27;20334;-83
2022/01/25 10:23:18;;;;;;;;;;;;;;;;;;5153865;27;19938;-81
2022/01/25 10:25:45;;;;;;;;;;;;;;;;;;5153013;27;19992;-83
2022/01/25 10:28:12;;;;;;;;;;;;;;;;;;5154177;27;19912;-83
2022/01/25 10:30:39;;;;;;;;;;;;;;;;;;5152924;27;20380;-82
2022/01/25 10:33:16;;;;;;;;;;;;;;;;;;5152895;27;19976;-83
2022/01/25 10:35:41;;;;;;;;;;;;;;;;;;5133139;27;19980;-83
2022/01/25 10:38:17;;;;;;;;;;;;;;;;;;5152107;27;19915;-83
2022/01/25 10:40:42;;;;;;;;;;;;;;;;;;5147967;27;19920;-84
2022/01/25 10:43:12;;;;;;;;;;;;;;;;;;5130619;27;19916;-82
2022/01/25 10:45:37;;;;;;;;;;;;;;;;;;5153423;27;19920;-80
2022/01/25 10:48:03;;;;;;;;;;;;;;;;;;5116991;27;19915;-82
2022/01/25 10:50:34;;;;;;;;;;;;;;;;;;5154361;27;19899;-80
2022/01/25 10:53:16;;;;;;;;;;;;;;;;;;5149494;27;19982;-79
2022/01/25 10:55:41;;;;;;;;;;;;;;;;;;5141261;27;19961;-79
2022/01/25 10:58:07;;;;;;;;;;;;;;;;;;5142051;27;19915;-79
2022/01/25 11:00:33;;;;;;;;;;;;;;;;;;5143284;27;19915;-78
2022/01/25 11:02:59;;;;;;;;;;;;;;;;;;5144268;27;19923;-79
2022/01/25 11:05:25;;;;;;;;;;;;;;;;;;5141751;27;19927;-80
2022/01/25 11:07:51;;;;;;;;;;;;;;;;;;5125881;27;19922;-78
2022/01/25 11:10:18;;;;;;;;;;;;;;;;;;5123263;27;19916;-79
2022/01/25 11:12:59;;;;;;;;;;;;;;;;;;5140490;27;19915;-78
2022/01/25 11:15:24;;;;;;;;;;;;;;;;;;5138617;27;19927;-79
2022/01/25 11:17:50;;;;;;;;;;;;;;;;;;5122502;27;19916;-77
2022/01/25 11:20:15;;;;;;;;;;;;;;;;;;5101618;28;19919;-80
2022/01/25 11:22:41;;;;;;;;;;;;;;;;;;5101485;28;19915;-78
2022/01/25 11:25:06;;;;;;;;;;;;;;;;;;5117432;28;20297;-78
2022/01/25 11:27:32;;;;;;;;;;;;;;;;;;5125457;27;19915;-78
2022/01/25 11:30:09;;;;;;;;;;;;;;;;;;5139159;27;19915;-79
2022/01/25 11:32:38;;;;;;;;;;;;;;;;;;5140921;27;19915;-80
2022/01/25 11:35:05;;;;;;;;;;;;;;;;;;5141064;27;19916;-78
2022/01/25 11:37:43;;;;;;;;;;;;;;;;;;5145955;27;19919;-84
2022/01/25 11:40:21;;;;;;;;;;;;;;;;;;5132005;27;19922;-81
2022/01/25 11:42:47;;;;;;;;;;;;;;;;;;5125520;28;19915;-82
2022/01/25 11:45:13;;;;;;;;;;;;;;;;;;5137126;27;20063;-85
2022/01/25 11:47:46;;;;;;;;;;;;;;;;;;5143436;27;19926;-84
2022/01/25 11:50:12;;;;;;;;;;;;;;;;;;5142754;27;19919;-82
2022/01/25 11:52:47;;;;;;;;;;;;;;;;;;5124870;27;19915;-83
2022/01/25 11:55:33;;;;;;;;;;;;;;;;;;5143016;27;19922;-82
2022/01/25 11:57:58;;;;;;;;;;;;;;;;;;5142901;27;20326;-82
2022/01/25 12:00:41;;;;;;;;;;;;;;;;;;5141411;27;19922;-82
2022/01/25 12:03:20;;;;;;;;;;;;;;;;;;5122523;28;19916;-83
2022/01/25 12:05:55;;;;;;;;;;;;;;;;;;5121911;28;20392;-82
2022/01/25 12:08:28;;;;;;;;;;;;;;;;;;5122676;28;20061;-82
2022/01/25 12:11:05;;;;;;;;;;;;;;;;;;5104343;28;19923;-83
2022/01/25 12:13:31;;;;;;;;;;;;;;;;;;5122329;28;20048;-82
2022/01/25 12:16:15;;;;;;;;;;;;;;;;;;5121299;28;19947;-84
2022/01/25 12:18:57;;;;;;;;;;;;;;;;;;5121923;27;19915;-83
2022/01/25 12:21:41;;;;;;;;;;;;;;;;;;5124202;27;20007;-82
2022/01/25 12:24:30;;;;;;;;;;;;;;;;;;5136560;27;19971;-82
2022/01/25 12:27:00;;;;;;;;;;;;;;;;;;5124839;28;19941;-83
2022/01/25 12:29:30;;;;;;;;;;;;;;;;;;5127109;28;19916;-83
2022/01/25 12:32:14;;;;;;;;;;;;;;;;;;5108869;28;20011;-84
2022/01/25 12:34:55;;;;;;;;;;;;;;;;;;5103982;28;19979;-83
2022/01/25 12:37:39;;;;;;;;;;;;;;;;;;5130300;27;20402;-80
2022/01/25 12:40:26;;;;;;;;;;;;;;;;;;5120483;27;19916;-80
2022/01/25 12:42:52;;;;;;;;;;;;;;;;;;5139342;27;19915;-80
2022/01/25 12:45:21;;;;;;;;;;;;;;;;;;5140070;27;20338;-80
2022/01/25 12:48:00;;;;;;;;;;;;;;;;;;5139559;27;19916;-81
2022/01/25 12:50:26;;;;;;;;;;;;;;;;;;5139622;27;20250;-80
2022/01/25 12:52:52;;;;;;;;;;;;;;;;;;5137346;27;19918;-81
2022/01/25 12:55:24;;;;;;;;;;;;;;;;;;5138691;27;20010;-81
2022/01/25 12:57:50;;;;;;;;;;;;;;;;;;5138156;27;19968;-81
2022/01/25 13:00:16;;;;;;;;;;;;;;;;;;5136295;27;19915;-81
2022/01/25 13:02:42;;;;;;;;;;;;;;;;;;5118738;27;19960;-80
2022/01/25 13:05:14;;;;;;;;;;;;;;;;;;5140108;27;20019;-81
2022/01/25 13:07:40;;;;;;;;;;;;;;;;;;5141386;27;19972;-81
2022/01/25 13:10:08;;;;;;;;;;;;;;;;;;5141268;27;19915;-80
2022/01/25 13:12:37;;;;;;;;;;;;;;;;;;5120211;27;19929;-81
2022/01/25 13:15:27;;;;;;;;;;;;;;;;;;5138963;28;19919;-80
2022/01/25 13:17:51;;;;;;;;;;;;;;;;;;5120660;27;19915;-80
2022/01/25 13:20:20;;;;;;;;;;;;;;;;;;5139960;28;19915;-80
2022/01/25 13:22:46;;;;;;;;;;;;;;;;;;5139073;28;19915;-80
2022/01/25 13:27:51;;;;;;;;;;;;;;;;;;5119094;28;20336;-81
2022/01/25 13:33:02;;;;;;;;;;;;;;;;;;5122828;27;19924;-80
2022/01/25 13:35:32;;;;;;;;;;;;;;;;;;5122386;28;19923;-80
2022/01/25 13:38:03;;;;;;;;;;;;;;;;;;5122320;28;19916;-81
2022/01/25 13:40:36;;;;;;;;;;;;;;;;;;5122267;28;19915;-80
2022/01/25 13:45:57;;;;;;;;;;;;;;;;;;5089075;28;19926;-80
2022/01/25 13:48:24;;;;;;;;;;;;;;;;;;5114138;27;19939;-77
2022/01/25 13:50:53;;;;;;;;;;;;;;;;;;5124228;27;19969;-76
2022/01/25 13:53:19;;;;;;;;;;;;;;;;;;5147305;27;19946;-80
2022/01/25 13:55:51;;;;;;;;;;;;;;;;;;5148689;27;19915;-80
2022/01/25 13:58:24;;;;;;;;;;;;;;;;;;5126815;27;20001;-80
2022/01/25 14:00:50;;;;;;;;;;;;;;;;;;5126721;27;19934;-81
2022/01/25 14:03:16;;;;;;;;;;;;;;;;;;5126072;27;19915;-82
2022/01/25 14:05:42;;;;;;;;;;;;;;;;;;5124457;28;19920;-81
2022/01/25 14:08:07;;;;;;;;;;;;;;;;;;5124659;28;19916;-81
2022/01/25 14:10:33;;;;;;;;;;;;;;;;;;5125216;28;19916;-81
2022/01/25 14:23:57;;;;;;;;;;;;;;;;;;5131317;28;19916;-82
2022/01/25 14:26:31;;;;;;;;;;;;;;;;;;5113224;28;19942;-82
2022/01/25 14:29:13;;;;;;;;;;;;;;;;;;5131138;28;19923;-81
2022/01/25 14:31:41;;;;;;;;;;;;;;;;;;5128410;27;19915;-82
2022/01/25 14:34:08;;;;;;;;;;;;;;;;;;5132796;27;19915;-81
2022/01/25 14:36:34;;;;;;;;;;;;;;;;;;5150232;27;19954;-81
2022/01/25 14:39:00;;;;;;;;;;;;;;;;;;5130686;28;19926;-82
2022/01/25 14:41:29;;;;;;;;;;;;;;;;;;5149640;27;19975;-81
2022/01/25 14:43:57;;;;;;;;;;;;;;;;;;5151237;27;19968;-81
2022/01/25 14:46:31;;;;;;;;;;;;;;;;;;5151636;27;19972;-82
2022/01/25 14:49:13;;;;;;;;;;;;;;;;;;5134370;27;19916;-81
2022/01/25 14:51:42;;;;;;;;;;;;;;;;;;5114860;27;19919;-81
2022/01/25 14:54:08;;;;;;;;;;;;;;;;;;5149961;27;19951;-82
2022/01/25 14:56:34;;;;;;;;;;;;;;;;;;5147492;27;19911;-81
2022/01/25 14:59:23;;;;;;;;;;;;;;;;;;5129046;27;19964;-81
2022/01/25 15:01:48;;;;;;;;;;;;;;;;;;5148087;27;19951;-81
2022/01/25 15:04:13;;;;;;;;;;;;;;;;;;5145410;27;19922;-82
2022/01/25 15:06:39;;;;;;;;;;;;;;;;;;5124970;27;19931;-82
2022/01/25 15:09:04;;;;;;;;;;;;;;;;;;5125593;27;19916;-82
2022/01/25 15:11:32;;;;;;;;;;;;;;;;;;5145830;27;19915;-82
2022/01/25 15:14:05;;;;;;;;;;;;;;;;;;5143610;27;19919;-84
2022/01/25 15:16:31;;;;;;;;;;;;;;;;;;5142171;27;20018;-82
2022/01/25 15:18:56;;;;;;;;;;;;;;;;;;5149392;27;19915;-81
2022/01/25 15:21:21;;;;;;;;;;;;;;;;;;5149966;27;20001;-81
2022/01/25 15:23:49;;;;;;;;;;;;;;;;;;5149974;27;20384;-81
2022/01/25 15:26:17;;;;;;;;;;;;;;;;;;5149446;27;19927;-81
2022/01/25 15:28:45;;;;;;;;;;;;;;;;;;5149183;27;20009;-81
2022/01/25 15:31:20;;;;;;;;;;;;;;;;;;5149046;27;19937;-81
2022/01/25 15:33:47;;;;;;;;;;;;;;;;;;5147617;27;20000;-81
2022/01/25 15:36:15;;;;;;;;;;;;;;;;;;5149935;27;19916;-81
2022/01/25 15:38:40;;;;;;;;;;;;;;;;;;5130821;27;20010;-81
2022/01/25 15:41:10;;;;;;;;;;;;;;;;;;5149135;27;19922;-81
2022/01/25 15:43:51;;;;;;;;;;;;;;;;;;5148934;27;19916;-80
2022/01/25 15:46:25;;;;;;;;;;;;;;;;;;5129377;27;19926;-81
2022/01/25 15:48:51;;;;;;;;;;;;;;;;;;5113752;27;19915;-81
2022/01/25 15:51:16;;;;;;;;;;;;;;;;;;5147141;27;19930;-80
2022/01/25 15:53:41;;;;;;;;;;;;;;;;;;5124971;27;19928;-80
2022/01/25 15:56:07;;;;;;;;;;;;;;;;;;5126377;27;20270;-80
2022/01/25 15:58:32;;;;;;;;;;;;;;;;;;5122330;28;19915;-80
2022/01/25 16:00:57;;;;;;;;;;;;;;;;;;5131005;27;19915;-80
2022/01/25 16:03:23;;;;;;;;;;;;;;;;;;5144142;27;20048;-80
2022/01/25 16:05:50;;;;;;;;;;;;;;;;;;5143193;27;19924;-80
2022/01/25 16:08:15;;;;;;;;;;;;;;;;;;5141953;27;19953;-80
2022/01/25 16:10:41;;;;;;;;;;;;;;;;;;5143071;27;19915;-79
2022/01/25 16:13:07;;;;;;;;;;;;;;;;;;5142444;27;20356;-80
2022/01/25 16:15:32;;;;;;;;;;;;;;;;;;5107351;27;19922;-80
2022/01/25 16:17:57;;;;;;;;;;;;;;;;;;5142027;27;19915;-80
2022/01/25 16:20:23;;;;;;;;;;;;;;;;;;5140406;27;20000;-80
2022/01/25 16:22:48;;;;;;;;;;;;;;;;;;5122739;27;19915;-80
2022/01/25 16:25:13;;;;;;;;;;;;;;;;;;5123912;27;20025;-80
2022/01/25 16:27:39;;;;;;;;;;;;;;;;;;5147281;27;19962;-80
2022/01/25 16:30:04;;;;;;;;;;;;;;;;;;5148664;27;19915;-81
2022/01/25 16:32:35;;;;;;;;;;;;;;;;;;5149168;27;19927;-80
2022/01/25 16:35:00;;;;;;;;;;;;;;;;;;5146164;27;19919;-80
2022/01/25 16:37:25;;;;;;;;;;;;;;;;;;5143967;27;20384;-77
2022/01/25 16:39:52;;;;;;;;;;;;;;;;;;5142242;27;19922;-80
2022/01/25 16:42:17;;;;;;;;;;;;;;;;;;5146572;27;19930;-80
2022/01/25 16:44:44;;;;;;;;;;;;;;;;;;5146853;27;19919;-80
2022/01/25 16:47:10;;;;;;;;;;;;;;;;;;5147188;27;20280;-81
2022/01/25 16:49:36;;;;;;;;;;;;;;;;;;5128014;27;19945;-81
2022/01/25 16:52:01;;;;;;;;;;;;;;;;;;5143158;27;20377;-78
2022/01/25 16:54:26;;;;;;;;;;;;;;;;;;5143381;27;20021;-79
2022/01/25 16:56:52;;;;;;;;;;;;;;;;;;5146808;27;19915;-79
2022/01/25 16:59:19;;;;;;;;;;;;;;;;;;5146096;27;20376;-79
2022/01/25 17:01:45;;;;;;;;;;;;;;;;;;5127462;27;19996;-79
2022/01/25 17:04:10;;;;;;;;;;;;;;;;;;5126821;27;19919;-79
2022/01/25 17:06:36;;;;;;;;;;;;;;;;;;5146559;27;20298;-79
2022/01/25 17:09:01;;;;;;;;;;;;;;;;;;5144669;27;19936;-79
2022/01/25 17:11:27;;;;;;;;;;;;;;;;;;5146205;27;19966;-79
2022/01/25 17:13:52;;;;;;;;;;;;;;;;;;5144673;27;19920;-79
2022/01/25 17:16:18;;;;;;;;;;;;;;;;;;5127090;28;19923;-79
2022/01/25 17:18:43;;;;;;;;;;;;;;;;;;5126797;28;20419;-79
2022/01/25 17:21:09;;;;;;;;;;;;;;;;;;5126454;28;20321;-79
2022/01/25 17:23:35;;;;;;;;;;;;;;;;;;5144693;28;19976;-79
2022/01/25 17:26:00;;;;;;;;;;;;;;;;;;5144495;28;19919;-79
2022/01/25 17:28:25;;;;;;;;;;;;;;;;;;5145526;27;19915;-78
2022/01/25 17:30:52;;;;;;;;;;;;;;;;;;5144190;28;19923;-79
2022/01/25 17:33:17;;;;;;;;;;;;;;;;;;5143921;28;19937;-79
2022/01/25 17:35:43;;;;;;;;;;;;;;;;;;5143582;28;19919;-79
2022/01/25 17:38:10;;;;;;;;;;;;;;;;;;5124243;27;19963;-79
2022/01/25 17:40:39;;;;;;;;;;;;;;;;;;5144180;28;19926;-79
2022/01/25 17:43:04;;;;;;;;;;;;;;;;;;5144085;28;19915;-79
2022/01/25 17:45:30;;;;;;;;;;;;;;;;;;5143679;28;20260;-79
2022/01/25 17:47:56;;;;;;;;;;;;;;;;;;5142865;27;19965;-79
2022/01/25 17:50:21;;;;;;;;;;;;;;;;;;5143303;28;20280;-79
2022/01/25 17:52:47;;;;;;;;;;;;;;;;;;5142907;28;19915;-79
2022/01/25 17:55:12;;;;;;;;;;;;;;;;;;5142897;28;19923;-79
2022/01/25 17:57:38;;;;;;;;;;;;;;;;;;5142895;28;19968;-79
2022/01/25 18:00:07;;;;;;;;;;;;;;;;;;5142527;27;19915;-79
2022/01/25 18:02:39;;;;;;;;;;;;;;;;;;5141406;28;22302;-79
2022/01/25 18:05:05;;;;;;;;;;;;;;;;;;5124450;28;20012;-79
2022/01/25 18:07:30;;;;;;;;;;;;;;;;;;5142553;28;20384;-79
2022/01/25 18:09:56;;;;;;;;;;;;;;;;;;5144843;27;20006;-79
2022/01/25 18:12:22;;;;;;;;;;;;;;;;;;5130081;28;20009;-79
2022/01/25 18:14:47;;;;;;;;;;;;;;;;;;5124961;27;19919;-79
2022/01/25 18:17:16;;;;;;;;;;;;;;;;;;5105530;27;19915;-79
2022/01/25 18:19:43;;;;;;;;;;;;;;;;;;5122724;27;19915;-79
2022/01/25 18:22:09;;;;;;;;;;;;;;;;;;5141143;27;19915;-78
2022/01/25 18:24:46;;;;;;;;;;;;;;;;;;5141204;27;20434;-79
2022/01/25 18:27:11;;;;;;;;;;;;;;;;;;5141304;27;19919;-78
2022/01/25 18:29:36;;;;;;;;;;;;;;;;;;5140833;27;19922;-78
2022/01/25 18:32:01;;;;;;;;;;;;;;;;;;5121172;27;19916;-78
2022/01/25 18:34:30;;;;;;;;;;;;;;;;;;5119599;28;19922;-79
2022/01/25 18:36:57;;;;;;;;;;;;;;;;;;5119951;28;20061;-82
2022/01/25 18:39:23;;;;;;;;;;;;;;;;;;5121694;28;19915;-81
2022/01/25 18:41:49;;;;;;;;;;;;;;;;;;5122448;28;19922;-80
2022/01/25 18:44:15;;;;;;;;;;;;;;;;;;5120719;28;19916;-80
2022/01/25 18:46:41;;;;;;;;;;;;;;;;;;5120767;28;19926;-80
2022/01/25 18:49:07;;;;;;;;;;;;;;;;;;5120346;28;20365;-80
2022/01/25 18:51:33;;;;;;;;;;;;;;;;;;5102213;28;20428;-80
2022/01/25 18:53:59;;;;;;;;;;;;;;;;;;5120821;28;20014;-81
2022/01/25 18:56:25;;;;;;;;;;;;;;;;;;5123276;28;19966;-81
2022/01/25 18:58:50;;;;;;;;;;;;;;;;;;5131967;27;20008;-81
2022/01/25 19:01:16;;;;;;;;;;;;;;;;;;5142877;27;19975;-81
2022/01/25 19:03:41;;;;;;;;;;;;;;;;;;5107913;27;19915;-81
2022/01/25 19:06:07;;;;;;;;;;;;;;;;;;5125430;27;19975;-80
2022/01/25 19:08:32;;;;;;;;;;;;;;;;;;5143579;27;19922;-80
2022/01/25 19:10:57;;;;;;;;;;;;;;;;;;5123258;27;19915;-83
2022/01/25 19:13:24;;;;;;;;;;;;;;;;;;5143523;27;19969;-85
2022/01/25 19:15:50;;;;;;;;;;;;;;;;;;5123126;27;20367;-80
2022/01/25 19:18:15;;;;;;;;;;;;;;;;;;5141403;27;19916;-86
2022/01/25 19:20:41;;;;;;;;;;;;;;;;;;5122211;27;20364;-83
2022/01/25 19:23:06;;;;;;;;;;;;;;;;;;5119409;27;19916;-86
2022/01/25 19:25:32;;;;;;;;;;;;;;;;;;5118671;27;19919;-86
2022/01/25 19:27:57;;;;;;;;;;;;;;;;;;5119657;27;19980;-84
2022/01/25 19:30:22;;;;;;;;;;;;;;;;;;5144464;27;19915;-86
2022/01/25 19:32:49;;;;;;;;;;;;;;;;;;5106827;27;20295;-86
2022/01/25 19:35:16;;;;;;;;;;;;;;;;;;5123651;27;19915;-86
2022/01/25 19:37:41;;;;;;;;;;;;;;;;;;5138904;27;19972;-86
2022/01/25 19:40:08;;;;;;;;;;;;;;;;;;5102055;27;20412;-86
2022/01/25 19:42:34;;;;;;;;;;;;;;;;;;5115198;28;19963;-86
2022/01/25 19:45:00;;;;;;;;;;;;;;;;;;5081712;28;19915;-86
2022/01/25 19:47:26;;;;;;;;;;;;;;;;;;5098603;28;19923;-86
2022/01/25 19:49:52;;;;;;;;;;;;;;;;;;5081462;28;19915;-86
2022/01/25 19:52:21;;;;;;;;;;;;;;;;;;5115292;28;19922;-86
2022/01/25 19:54:46;;;;;;;;;;;;;;;;;;5085220;27;19938;-86
2022/01/25 19:57:12;;;;;;;;;;;;;;;;;;5101645;27;20376;-86